Time;durP1;ratioP1;P1;durP2;ratioP2;P2;SDS_P1;SDS_P2;PMS_P1;PMS_P2;Temp;Humidity;BMP_temperature;BMP_pressure;BME280_temperature;BME280_humidity;BME280_pressure;Samples;Min_cycle;Max_cycle;Signal;HPM_P1;HPM_P2
2022/03/12 00:02:22;;;;;;;10.85;6.10;;;;;;;-0.22;66.25;101070.44;5976974;29;20146;-90
2022/03/12 00:05:25;;;;;;;9.35;5.40;;;;;;;-0.20;65.27;101069.56;5978070;29;20533;-90
2022/03/12 00:08:51;;;;;;;10.30;5.97;;;;;;;-0.28;65.45;101065.50;5979107;29;20046;-90
2022/03/12 00:12:00;;;;;;;8.82;5.70;;;;;;;-0.35;66.05;101061.44;5979241;29;20047;-90
2022/03/12 00:15:10;;;;;;;11.43;5.60;;;;;;;-0.33;65.79;101058.84;5981067;29;20053;-90
2022/03/12 00:18:18;;;;;;;8.82;5.55;;;;;;;-0.44;66.52;101052.34;5978562;29;20042;-90
2022/03/12 00:21:24;;;;;;;10.13;5.82;;;;;;;-0.45;66.78;101057.44;5979601;29;20560;-90
2022/03/12 00:24:28;;;;;;;9.85;5.25;;;;;;;-0.43;66.23;101041.28;5978261;29;20052;-90
2022/03/12 00:27:30;;;;;;;13.00;5.50;;;;;;;-0.42;64.88;101052.31;5977620;29;20050;-90
2022/03/12 00:30:35;;;;;;;10.23;5.22;;;;;;;-0.54;67.54;101050.06;5976449;29;20050;-90
2022/03/12 00:33:37;;;;;;;8.88;6.00;;;;;;;-0.57;68.43;101050.13;5976628;29;20282;-90
2022/03/12 00:36:39;;;;;;;11.30;6.18;;;;;;;-0.61;65.98;101058.72;5974803;29;20117;-90
2022/03/12 00:39:44;;;;;;;10.18;5.22;;;;;;;-0.50;64.99;101055.03;5960665;29;20051;-90
2022/03/12 00:42:46;;;;;;;10.98;5.75;;;;;;;-0.48;65.32;101049.91;5974630;29;20070;-90
2022/03/12 00:45:49;;;;;;;12.40;5.45;;;;;;;-0.44;63.80;101051.50;5978688;29;20054;-90
2022/03/12 00:48:51;;;;;;;9.73;5.50;;;;;;;-0.35;64.78;101047.88;5981844;29;20050;-90
2022/03/12 00:51:53;;;;;;;11.18;6.00;;;;;;;-0.44;63.69;101043.88;5986382;29;20050;-90
2022/03/12 00:54:55;;;;;;;9.95;5.30;;;;;;;-0.51;65.74;101049.97;5982934;29;20743;-89
2022/03/12 00:57:57;;;;;;;8.85;5.68;;;;;;;-0.57;64.53;101050.97;5987065;29;20047;-90
2022/03/12 01:00:59;;;;;;;10.57;5.45;;;;;;;-0.59;64.83;101051.88;5979410;29;20065;-90
2022/03/12 01:04:14;;;;;;;8.05;5.30;;;;;;;-0.62;66.02;101051.94;5980395;29;20054;-90
2022/03/12 01:07:17;;;;;;;8.90;5.25;;;;;;;-0.60;64.89;101040.03;5979612;29;20054;-90
2022/03/12 01:10:20;;;;;;;10.35;5.07;;;;;;;-0.61;65.79;101046.81;5979860;29;20050;-90
2022/03/12 01:13:29;;;;;;;8.80;5.45;;;;;;;-0.79;65.58;101043.03;5979594;29;20138;-90
2022/03/12 01:16:31;;;;;;;9.20;5.55;;;;;;;-0.70;65.11;101047.88;5976721;29;20082;-90
2022/03/12 01:19:34;;;;;;;9.68;5.30;;;;;;;-0.61;64.47;101048.53;5978993;29;20054;-90
2022/03/12 01:22:38;;;;;;;10.20;5.50;;;;;;;-0.76;63.68;101042.94;5976553;29;20053;-89
2022/03/12 01:25:41;;;;;;;9.60;5.60;;;;;;;-0.74;65.43;101050.53;5966641;29;20074;-90
2022/03/12 01:28:45;;;;;;;11.13;5.97;;;;;;;-0.90;65.90;101035.63;5977989;29;20038;-89
2022/03/12 01:31:47;;;;;;;10.77;5.40;;;;;;;-0.82;66.36;101027.84;5977469;29;20051;-89
2022/03/12 01:34:52;;;;;;;8.93;5.60;;;;;;;-0.83;66.70;101018.53;5976676;29;20050;-89
2022/03/12 01:37:54;;;;;;;10.18;5.78;;;;;;;-0.72;64.90;101024.22;5975843;29;20536;-89
2022/03/12 01:41:02;;;;;;;8.30;5.13;;;;;;;-0.78;67.07;101021.81;5958161;29;20601;-89
2022/03/12 01:44:05;;;;;;;9.95;5.32;;;;;;;-0.84;67.30;101016.88;5961617;29;20054;-89
2022/03/12 01:47:10;;;;;;;8.50;5.38;;;;;;;-0.75;65.81;101013.28;5979421;29;20050;-89
2022/03/12 01:50:12;;;;;;;9.90;5.65;;;;;;;-0.78;66.35;101013.34;5988325;29;20552;-89
2022/03/12 01:53:14;;;;;;;11.10;5.40;;;;;;;-0.93;67.84;101014.56;5964962;29;20080;-89
2022/03/12 01:56:17;;;;;;;9.23;5.43;;;;;;;-0.98;67.73;101008.75;5980844;29;20076;-89
2022/03/12 01:59:20;;;;;;;9.23;5.18;;;;;;;-0.97;66.99;101016.34;5983326;29;20050;-89
2022/03/12 02:02:23;;;;;;;9.68;5.72;;;;;;;-1.06;68.33;101008.94;5981070;29;20177;-89
2022/03/12 02:05:27;;;;;;;10.65;5.47;;;;;;;-1.02;68.21;101010.50;5980909;29;20054;-89
2022/03/12 02:08:29;;;;;;;10.82;5.95;;;;;;;-0.98;68.37;101007.03;5982422;29;20061;-89
2022/03/12 02:11:32;;;;;;;9.70;5.47;;;;;;;-1.09;67.32;101011.53;5989199;29;20053;-89
2022/03/12 02:14:36;;;;;;;10.27;5.05;;;;;;;-1.07;65.46;100999.63;5977798;29;20082;-89
2022/03/12 02:17:38;;;;;;;11.25;5.35;;;;;;;-1.04;66.55;100999.56;5976237;29;20046;-89
2022/03/12 02:20:41;;;;;;;7.82;5.00;;;;;;;-1.02;65.29;100991.91;5979845;29;20109;-89
2022/03/12 02:23:49;;;;;;;9.90;5.55;;;;;;;-1.00;64.93;100995.25;5963594;29;20092;-88
2022/03/12 02:26:55;;;;;;;10.05;5.18;;;;;;;-1.00;65.55;100997.78;5977725;29;20050;-89
2022/03/12 02:29:59;;;;;;;8.02;4.75;;;;;;;-0.95;63.25;100998.50;5963792;29;20046;-89
2022/03/12 02:33:02;;;;;;;8.48;4.75;;;;;;;-0.97;65.34;100998.56;5975313;29;20714;-89
2022/03/12 02:36:06;;;;;;;8.10;4.90;;;;;;;-1.04;66.15;101003.78;5981546;29;20043;-89
2022/03/12 02:39:08;;;;;;;7.63;4.70;;;;;;;-1.10;65.21;101015.75;5981210;29;20046;-89
2022/03/12 02:42:11;;;;;;;10.60;5.28;;;;;;;-1.05;66.25;101014.84;5981030;29;20057;-89
2022/03/12 02:45:13;;;;;;;7.57;4.95;;;;;;;-1.02;63.83;101007.97;5979813;29;20046;-89
2022/03/12 02:48:15;;;;;;;7.07;4.70;;;;;;;-1.08;64.74;101021.66;5975040;29;20046;-89
2022/03/12 02:51:26;;;;;;;8.75;4.90;;;;;;;-1.15;65.66;101004.88;5978549;29;20129;-89
2022/03/12 02:54:27;;;;;;;7.53;5.05;;;;;;;-0.98;64.87;100999.41;5978877;29;20533;-89
2022/03/12 02:57:30;;;;;;;9.05;4.95;;;;;;;-1.03;66.14;100988.53;5964655;29;20061;-89
2022/03/12 03:00:36;;;;;;;11.05;4.93;;;;;;;-1.17;67.66;100988.00;5979618;29;20073;-89
2022/03/12 03:03:39;;;;;;;8.13;5.10;;;;;;;-1.26;68.51;100989.06;5978030;29;20046;-89
2022/03/12 03:06:42;;;;;;;7.22;4.63;;;;;;;-1.15;65.51;100992.19;5980558;29;20484;-89
2022/03/12 03:09:44;;;;;;;8.88;5.03;;;;;;;-1.08;65.25;100991.16;5977816;29;20039;-88
2022/03/12 03:12:47;;;;;;;10.07;5.25;;;;;;;-0.92;64.72;100983.19;5977174;29;20046;-89
2022/03/12 03:15:54;;;;;;;8.68;4.85;;;;;;;-1.04;64.46;100988.56;5980018;29;20065;-89
2022/03/12 03:18:57;;;;;;;7.65;4.78;;;;;;;-1.09;65.66;100992.06;5980039;29;20176;-89
2022/03/12 03:22:12;;;;;;;8.45;5.07;;;;;;;-1.22;68.32;100999.97;5976924;29;20746;-89
2022/03/12 03:25:14;;;;;;;10.07;5.18;;;;;;;-1.36;67.88;101015.53;5977841;29;20046;-89
2022/03/12 03:28:16;;;;;;;7.93;4.95;;;;;;;-1.51;70.65;101021.78;5980724;29;20584;-89
2022/03/12 03:31:18;;;;;;;11.30;5.20;;;;;;;-1.54;74.07;101020.13;5970844;29;20139;-89
2022/03/12 03:34:21;;;;;;;9.13;5.20;;;;;;;-1.44;74.05;101012.31;5978312;29;20102;-89
2022/03/12 03:37:23;;;;;;;9.07;5.15;;;;;;;-1.41;71.18;101008.00;5980248;29;20046;-89
2022/03/12 03:40:26;;;;;;;10.93;4.82;;;;;;;-1.37;72.21;100998.59;5976065;29;20050;-89
2022/03/12 03:43:28;;;;;;;8.68;4.88;;;;;;;-1.32;70.58;100984.09;5963078;29;20054;-88
2022/03/12 03:46:31;;;;;;;10.55;4.78;;;;;;;-1.48;74.42;100981.09;5980820;29;20112;-88
2022/03/12 03:49:46;;;;;;;10.07;4.97;;;;;;;-1.50;73.90;100999.75;5983544;29;20058;-88
2022/03/12 03:52:50;;;;;;;10.45;4.95;;;;;;;-1.61;78.21;100997.44;5975855;29;20440;-88
2022/03/12 03:55:55;;;;;;;8.95;4.85;;;;;;;-1.72;83.49;101000.19;5977665;29;20564;-88
2022/03/12 03:58:57;;;;;;;7.40;5.00;;;;;;;-1.59;76.33;101009.25;5976756;29;20168;-89
2022/03/12 04:01:59;;;;;;;8.65;4.82;;;;;;;-1.68;78.03;101011.97;5975016;29;20580;-89
2022/03/12 04:05:01;;;;;;;9.63;4.70;;;;;;;-1.68;74.05;101023.81;5981241;29;20368;-89
2022/03/12 04:08:07;;;;;;;8.80;4.72;;;;;;;-1.66;73.73;101030.53;5977598;29;20054;-89
2022/03/12 04:11:23;;;;;;;8.13;4.75;;;;;;;-1.77;78.23;101022.28;5983649;29;20038;-89
2022/03/12 04:14:26;;;;;;;6.60;4.50;;;;;;;-1.84;79.48;101011.44;5981816;29;20055;-88
2022/03/12 04:17:28;;;;;;;8.90;4.78;;;;;;;-1.79;75.90;101024.03;5980049;29;20129;-89
2022/03/12 04:20:31;;;;;;;9.43;4.57;;;;;;;-1.52;69.04;101022.63;5976704;29;20054;-89
2022/03/12 04:23:33;;;;;;;9.55;4.95;;;;;;;-1.50;68.44;101015.81;5978870;29;20046;-89
2022/03/12 04:26:37;;;;;;;9.18;4.95;;;;;;;-1.55;69.58;101015.91;5979032;29;20047;-89
2022/03/12 04:29:39;;;;;;;9.43;4.70;;;;;;;-1.55;69.91;101026.06;5981757;29;20223;-89
2022/03/12 04:32:45;;;;;;;10.43;4.65;;;;;;;-1.69;73.66;101022.13;5963187;29;20218;-89
2022/03/12 04:35:48;;;;;;;7.90;4.65;;;;;;;-1.69;72.10;101022.13;5990574;29;20054;-89
2022/03/12 04:38:50;;;;;;;9.93;4.90;;;;;;;-1.74;75.73;101020.53;5987878;29;20069;-89
2022/03/12 04:41:59;;;;;;;7.97;4.47;;;;;;;-1.83;80.66;101023.25;5974878;29;20067;-89
2022/03/12 04:45:01;;;;;;;6.90;4.22;;;;;;;-1.90;81.26;101024.25;5978841;29;20062;-89
2022/03/12 04:48:04;;;;;;;7.90;4.40;;;;;;;-1.95;83.76;101024.31;5977852;29;20047;-89
2022/03/12 04:51:07;;;;;;;8.32;4.68;;;;;;;-1.97;85.50;101025.22;5976811;29;20053;-89
2022/03/12 04:54:10;;;;;;;9.55;4.90;;;;;;;-1.97;84.07;101017.59;5978097;29;20046;-89
2022/03/12 04:57:25;;;;;;;6.68;4.30;;;;;;;-1.97;89.19;101026.03;5979200;29;20081;-89
2022/03/12 05:00:29;;;;;;;9.43;4.82;;;;;;;-1.96;85.57;101030.28;5978249;29;20487;-89
2022/03/12 05:03:31;;;;;;;10.30;4.75;;;;;;;-1.96;90.64;101032.81;5978026;29;20047;-89
2022/03/12 05:06:47;;;;;;;8.75;4.70;;;;;;;-1.93;88.27;101036.16;5997682;29;20494;-89
2022/03/12 05:09:49;;;;;;;8.25;4.38;;;;;;;-1.91;87.70;101037.81;5994423;29;20141;-89
2022/03/12 05:12:51;;;;;;;8.20;4.15;;;;;;;-1.87;88.18;101046.19;5976031;29;20046;-89
2022/03/12 05:15:56;;;;;;;10.13;4.20;;;;;;;-1.87;87.11;101051.25;5975540;29;20046;-89
2022/03/12 05:18:59;;;;;;;8.82;4.25;;;;;;;-1.86;86.35;101050.38;5976066;29;20050;-89
2022/03/12 05:22:04;;;;;;;7.47;3.88;;;;;;;-1.75;80.84;101066.25;5977383;29;20042;-89
2022/03/12 05:25:07;;;;;;;8.05;3.90;;;;;;;-1.76;82.74;101067.13;5975745;29;20212;-89
2022/03/12 05:28:15;;;;;;;8.38;4.45;;;;;;;-1.39;72.05;101057.06;5977902;29;20457;-89
2022/03/12 05:31:17;;;;;;;8.80;3.83;;;;;;;-1.10;65.25;101038.63;5976988;29;20149;-89
2022/03/12 05:34:22;;;;;;;6.57;3.50;;;;;;;-0.99;63.50;101052.81;5967121;29;20046;-89
2022/03/12 05:37:24;;;;;;;6.93;3.50;;;;;;;-1.04;64.33;101068.16;5976020;29;20050;-89
2022/03/12 05:40:28;;;;;;;5.35;3.38;;;;;;;-0.99;63.04;101075.69;5971391;29;20054;-89
2022/03/12 05:43:35;;;;;;;6.75;3.95;;;;;;;-1.01;66.27;101074.88;5976695;29;20059;-89
2022/03/12 05:46:37;;;;;;;8.38;4.40;;;;;;;-1.05;67.98;101076.63;5974471;29;20079;-89
2022/03/12 05:49:39;;;;;;;5.30;3.78;;;;;;;-1.02;68.69;101079.09;5982252;29;20054;-89
2022/03/12 05:52:50;;;;;;;5.50;3.47;;;;;;;-0.94;65.52;101076.41;5976236;29;20157;-89
2022/03/12 05:55:53;;;;;;;6.15;3.75;;;;;;;-0.93;67.52;101071.28;5978025;29;20042;-90
2022/03/12 05:58:55;;;;;;;7.57;3.97;;;;;;;-0.69;62.85;101067.34;5973660;29;20044;-89
2022/03/12 06:01:57;;;;;;;5.57;3.38;;;;;;;-0.60;62.94;101068.00;5975185;29;20674;-89
2022/03/12 06:04:59;;;;;;;8.13;3.88;;;;;;;-0.63;62.56;101073.16;5977984;29;20062;-89
2022/03/12 06:08:04;;;;;;;6.75;3.25;;;;;;;-0.42;56.02;101080.28;5984402;29;20054;-89
2022/03/12 06:11:07;;;;;;;6.15;2.92;;;;;;;-0.17;54.18;101084.72;5975184;29;20042;-89
2022/03/12 06:14:12;;;;;;;6.20;3.53;;;;;;;-0.10;52.78;101091.34;5959959;29;20050;-89
2022/03/12 06:17:15;;;;;;;6.22;3.20;;;;;;;0.11;51.31;101095.88;5975178;29;20046;-89
2022/03/12 06:20:20;;;;;;;6.20;3.10;;;;;;;0.19;51.24;101099.03;5960234;29;20053;-89
2022/03/12 06:23:23;;;;;;;4.32;3.00;;;;;;;0.27;51.61;101101.38;5976826;29;20171;-90
2022/03/12 06:26:25;;;;;;;6.50;3.17;;;;;;;0.46;50.20;101098.34;5955026;29;20137;-89
2022/03/12 06:29:28;;;;;;;5.18;3.13;;;;;;;0.46;50.48;101108.53;5981848;29;20588;-89
2022/03/12 06:32:31;;;;;;;5.22;2.75;;;;;;;0.49;48.54;101106.72;5976602;29;20049;-89
2022/03/12 06:35:34;;;;;;;6.40;3.10;;;;;;;0.48;49.82;101110.16;5957749;29;20571;-89
2022/03/12 06:38:39;;;;;;;5.57;3.40;;;;;;;0.62;49.77;101117.41;5977621;29;20046;-89
2022/03/12 06:41:45;;;;;;;4.97;3.17;;;;;;;0.67;48.87;101113.00;5986893;29;20048;-89
2022/03/12 06:44:51;;;;;;;7.13;2.95;;;;;;;0.61;48.52;101115.75;5980222;29;20099;-89
2022/03/12 06:47:53;;;;;;;4.85;2.78;;;;;;;0.70;48.98;101110.41;5978480;29;20725;-90
2022/03/12 06:50:55;;;;;;;5.38;3.22;;;;;;;0.60;49.18;101120.00;5993858;29;20042;-89
2022/03/12 06:53:58;;;;;;;7.47;2.95;;;;;;;0.72;47.90;101117.97;5978950;29;20141;-89
2022/03/12 06:57:03;;;;;;;5.18;2.92;;;;;;;0.74;47.92;101116.22;5977033;29;20148;-89
2022/03/12 07:00:11;;;;;;;5.38;3.15;;;;;;;0.68;48.89;101131.72;5981310;29;20070;-89
2022/03/12 07:03:13;;;;;;;4.43;3.13;;;;;;;0.74;47.67;101123.88;5990322;29;20057;-89
2022/03/12 07:06:16;;;;;;;5.00;2.97;;;;;;;0.79;47.55;101125.41;5982710;29;20125;-89
2022/03/12 07:09:18;;;;;;;4.85;3.35;;;;;;;0.86;47.48;101131.16;5977640;29;20050;-90
2022/03/12 07:12:20;;;;;;;4.35;3.10;;;;;;;0.82;46.48;101129.56;5994035;29;20069;-89
2022/03/12 07:15:22;;;;;;;6.47;3.25;;;;;;;0.83;47.28;101137.19;5983643;29;20107;-90
2022/03/12 07:18:24;;;;;;;4.32;2.88;;;;;;;0.89;48.29;101138.72;5961882;29;20054;-90
2022/03/12 07:21:27;;;;;;;4.72;2.80;;;;;;;0.98;47.64;101147.81;5978723;29;20042;-90
2022/03/12 07:24:29;;;;;;;4.43;2.83;;;;;;;1.10;47.12;101149.19;5979255;29;20728;-90
2022/03/12 07:27:36;;;;;;;5.70;3.33;;;;;;;1.19;46.21;101154.00;5980143;29;20046;-90
2022/03/12 07:30:40;;;;;;;5.28;3.10;;;;;;;1.25;46.35;101161.47;5961558;29;20050;-90
2022/03/12 07:33:43;;;;;;;7.55;2.75;;;;;;;1.44;46.34;101157.50;5978292;29;20046;-90
2022/03/12 07:36:48;;;;;;;4.22;3.00;;;;;;;1.56;45.72;101156.25;5963067;29;20195;-89
2022/03/12 07:39:50;;;;;;;7.07;3.42;;;;;;;1.66;46.04;101154.25;5980029;29;20046;-90
2022/03/12 07:42:52;;;;;;;5.03;3.13;;;;;;;1.80;45.90;101158.94;5978107;29;20443;-90
2022/03/12 07:45:56;;;;;;;4.57;3.08;;;;;;;1.90;45.30;101152.63;5980018;29;20535;-90
2022/03/12 07:48:59;;;;;;;6.03;3.15;;;;;;;2.04;45.54;101155.56;5980497;29;20054;-90
2022/03/12 07:52:01;;;;;;;4.47;3.15;;;;;;;2.12;44.52;101153.59;5977398;29;20889;-90
2022/03/12 07:55:09;;;;;;;6.82;3.45;;;;;;;2.20;43.46;101155.88;5978223;29;20639;-90
2022/03/12 07:58:14;;;;;;;7.93;3.35;;;;;;;2.23;43.67;101145.53;5978400;29;20038;-90
2022/03/12 08:01:16;;;;;;;9.43;4.10;;;;;;;2.31;43.71;101160.59;5983156;29;20088;-90
2022/03/12 08:04:19;;;;;;;9.40;4.63;;;;;;;2.40;44.51;101154.38;5978985;29;20050;-90
2022/03/12 08:07:21;;;;;;;10.02;4.45;;;;;;;2.44;44.96;101153.38;5977953;29;20180;-91
2022/03/12 08:10:24;;;;;;;11.52;5.65;;;;;;;2.57;43.81;101158.00;5976828;29;20050;-90
2022/03/12 08:13:26;;;;;;;7.43;4.15;;;;;;;2.65;43.33;101159.44;5977843;29;20115;-90
2022/03/12 08:16:33;;;;;;;6.25;3.40;;;;;;;2.73;42.80;101148.06;5981507;29;20350;-90
2022/03/12 08:19:38;;;;;;;7.03;3.72;;;;;;;2.83;43.41;101152.81;5977951;29;20477;-90
2022/03/12 08:22:44;;;;;;;5.50;3.13;;;;;;;2.82;42.32;101148.63;5977703;29;20966;-90
2022/03/12 08:25:46;;;;;;;5.50;2.92;;;;;;;2.91;43.23;101148.28;5980116;29;20129;-90
2022/03/12 08:28:49;;;;;;;4.32;3.30;;;;;;;3.10;43.18;101146.69;5977336;29;20065;-90
2022/03/12 08:31:52;;;;;;;5.40;3.08;;;;;;;3.15;42.97;101143.94;5980792;29;20062;-90
2022/03/12 08:34:57;;;;;;;5.50;3.10;;;;;;;3.17;41.45;101140.44;5981770;29;20046;-90
2022/03/12 08:38:00;;;;;;;5.38;3.38;;;;;;;3.27;41.42;101135.81;5977493;29;20045;-90
2022/03/12 08:41:12;;;;;;;7.82;3.28;;;;;;;3.29;41.64;101139.16;5966370;29;20054;-90
2022/03/12 08:44:14;;;;;;;5.57;3.03;;;;;;;3.38;42.74;101135.38;5978692;29;20046;-90
2022/03/12 08:47:17;;;;;;;5.63;3.55;;;;;;;3.60;42.32;101132.81;5978701;29;20053;-91
2022/03/12 08:50:25;;;;;;;5.13;2.90;;;;;;;3.66;41.50;101132.56;5975016;29;20080;-91
2022/03/12 08:53:42;;;;;;;6.38;3.80;;;;;;;3.78;41.55;101139.75;5976212;29;20065;-90
2022/03/12 08:56:45;;;;;;;5.22;3.28;;;;;;;3.83;41.00;101134.47;5982290;29;20038;-91
2022/03/12 08:59:47;;;;;;;5.85;3.92;;;;;;;3.91;41.15;101145.22;5985106;29;20070;-92
2022/03/12 09:02:56;;;;;;;5.32;4.07;;;;;;;3.99;41.75;101140.59;5981816;29;20187;-91
2022/03/12 09:05:59;;;;;;;8.05;3.47;;;;;;;4.06;41.66;101144.56;5970319;29;20133;-91
2022/03/12 09:09:02;;;;;;;7.28;4.00;;;;;;;4.11;40.68;101139.25;5987123;29;20042;-91
2022/03/12 09:12:05;;;;;;;6.32;3.92;;;;;;;4.27;40.82;101136.88;5985394;29;20035;-91
2022/03/12 09:15:09;;;;;;;6.93;3.80;;;;;;;4.39;40.92;101138.06;5987539;29;20042;-92
2022/03/12 09:18:12;;;;;;;5.32;3.70;;;;;;;4.43;40.92;101139.63;5991765;29;20047;-92
2022/03/12 09:21:15;;;;;;;7.32;3.97;;;;;;;4.63;41.30;101133.63;5995162;29;20057;-91
2022/03/12 09:24:18;;;;;;;5.72;3.65;;;;;;;4.74;40.74;101131.38;5992779;29;20054;-92
2022/03/12 09:27:20;;;;;;;9.23;3.92;;;;;;;4.87;39.95;101132.53;6001119;29;20066;-91
2022/03/12 09:30:25;;;;;;;7.13;3.78;;;;;;;4.97;40.11;101126.06;5975742;29;20054;-91
2022/03/12 09:33:28;;;;;;;7.40;4.18;;;;;;;5.04;41.38;101121.47;6003102;29;20046;-91
2022/03/12 09:36:38;;;;;;;7.43;5.55;;;;;;;5.11;41.36;101129.72;5999997;29;20617;-92
2022/03/12 09:39:46;;;;;;;6.78;3.72;;;;;;;5.21;41.80;101125.81;6008420;29;20054;-92
2022/03/12 09:43:03;;;;;;;5.40;3.90;;;;;;;5.32;41.12;101121.03;4021267;23;20311;31
2022/03/12 09:46:21;;;;;;;6.40;4.05;;;;;;;5.47;40.80;101114.31;5852474;23;20045;-94
2022/03/12 09:49:56;;;;;;;6.55;3.75;;;;;;;5.62;41.48;101112.75;6828526;23;20228;31
2022/03/12 09:53:17;;;;;;;5.35;3.55;;;;;;;5.81;41.86;101110.09;6715620;23;20020;31
2022/03/12 13:24:08;;;;;;;8.82;5.53;;;;;;;12.37;44.44;101027.88;7009431;23;20053;-94
2022/03/12 13:27:58;;;;;;;7.68;5.85;;;;;;;12.57;42.15;101033.22;6060183;23;20041;31
2022/03/12 13:49:25;;;;;;;13.05;5.75;;;;;;;13.07;43.89;101021.41;7244626;23;19922;31
2022/03/12 15:36:51;;;;;;;10.18;6.15;;;;;;;11.99;46.45;100997.09;7395525;23;21002;31
2022/03/12 15:58:19;;;;;;;13.48;7.00;;;;;;;11.16;48.46;101003.34;7163582;23;20611;-95
2022/03/12 17:57:30;;;;;;;8.57;5.55;;;;;;;5.75;46.19;100997.38;6746726;23;19955;-92
2022/03/12 18:00:42;;;;;;;13.20;6.40;;;;;;;5.63;46.58;100998.84;6042496;29;20059;-92
2022/03/12 18:04:20;;;;;;;12.25;6.03;;;;;;;5.52;47.38;101001.13;6007852;29;20038;-92
2022/03/12 18:11:01;;;;;;;10.60;5.65;;;;;;;5.44;47.08;101000.66;6171900;23;20058;-91
2022/03/12 18:17:31;;;;;;;5.78;4.63;;;;;;;5.32;46.86;100999.56;6056339;29;20920;-91
2022/03/12 18:20:42;;;;;;;9.60;6.03;;;;;;;5.27;46.39;101004.09;6052767;29;20037;-92
2022/03/12 18:24:10;;;;;;;10.43;5.93;;;;;;;5.18;46.74;101006.19;5999529;29;20078;-91
2022/03/12 18:27:28;;;;;;;8.25;5.57;;;;;;;5.16;46.57;101002.03;6023255;29;20058;-92
2022/03/12 18:30:43;;;;;;;12.60;6.57;;;;;;;5.20;46.95;101000.16;6003628;29;20491;-91
2022/03/12 18:33:56;;;;;;;8.63;5.30;;;;;;;5.16;46.97;101000.28;6014133;29;20046;-91
2022/03/12 18:37:13;;;;;;;10.13;5.53;;;;;;;5.13;47.33;101003.00;5998504;29;20115;-91
2022/03/12 18:40:20;;;;;;;9.25;5.70;;;;;;;4.97;47.78;101007.22;6014323;29;20049;-91
2022/03/12 18:43:28;;;;;;;10.23;5.57;;;;;;;4.85;48.64;101005.25;6003446;29;20422;-91
2022/03/12 18:46:35;;;;;;;8.95;5.30;;;;;;;4.75;48.26;101005.66;6008501;29;20038;-91
2022/03/12 18:49:40;;;;;;;8.93;5.65;;;;;;;4.67;48.72;100999.22;5992829;29;20107;-91
2022/03/12 18:52:44;;;;;;;10.15;5.55;;;;;;;4.57;48.93;101008.25;5994102;29;20062;-91
2022/03/12 18:55:50;;;;;;;9.77;5.70;;;;;;;4.44;50.28;101008.81;5988543;29;20047;-91
2022/03/12 18:58:53;;;;;;;8.52;6.00;;;;;;;4.36;50.10;100999.81;5991526;29;20125;-91
2022/03/12 19:02:06;;;;;;;9.60;5.65;;;;;;;4.26;50.96;101010.47;5994375;29;20053;-91
2022/03/12 19:05:09;;;;;;;12.48;6.47;;;;;;;4.20;51.34;101004.78;5977786;29;20108;-91
2022/03/12 19:08:24;;;;;;;11.10;6.15;;;;;;;4.12;51.20;101002.56;5989115;29;20153;-91
2022/03/12 19:11:26;;;;;;;8.48;5.55;;;;;;;4.05;52.41;101007.16;5994916;29;20043;-91
2022/03/12 19:14:29;;;;;;;10.10;5.80;;;;;;;4.00;52.07;100998.84;5984379;29;20053;-91
2022/03/12 19:17:31;;;;;;;9.43;5.20;;;;;;;3.95;51.57;101000.78;5980378;29;20169;-91
2022/03/12 19:20:35;;;;;;;9.80;6.15;;;;;;;3.95;51.79;101005.03;6006773;29;20050;-91
2022/03/12 19:23:40;;;;;;;7.75;5.18;;;;;;;3.92;51.52;101000.88;5996460;29;20043;-91
2022/03/12 19:26:47;;;;;;;8.43;5.88;;;;;;;3.87;50.16;101003.63;5994005;29;20054;-91
2022/03/12 19:29:51;;;;;;;10.55;5.90;;;;;;;3.84;50.64;100992.72;5989771;29;20050;-91
2022/03/12 19:32:54;;;;;;;7.47;5.60;;;;;;;3.86;50.54;100998.59;5998613;29;20117;-91
2022/03/12 19:35:56;;;;;;;9.57;5.28;;;;;;;3.83;51.34;101001.31;5977649;29;20194;-91
2022/03/12 19:39:00;;;;;;;7.97;5.22;;;;;;;3.78;50.01;101000.66;5990017;29;20050;-91
2022/03/12 19:42:03;;;;;;;9.63;6.10;;;;;;;3.73;49.95;101010.28;5981404;29;20046;-91
2022/03/12 19:45:09;;;;;;;8.32;5.70;;;;;;;3.71;51.47;100996.72;5980762;29;20398;-91
2022/03/12 19:48:13;;;;;;;10.57;6.53;;;;;;;3.66;50.92;101007.13;5981366;29;20044;-91
2022/03/12 19:51:16;;;;;;;9.80;6.38;;;;;;;3.58;50.97;101004.09;5991320;29;20397;-91
2022/03/12 19:54:17;;;;;;;9.07;5.57;;;;;;;3.50;51.76;101008.66;5990051;29;20515;-91
2022/03/12 19:57:20;;;;;;;10.25;5.65;;;;;;;3.47;52.19;101008.81;5979317;29;20042;-91
2022/03/12 20:00:22;;;;;;;8.77;5.63;;;;;;;3.38;52.14;101007.44;5988362;29;20058;-91
2022/03/12 20:03:25;;;;;;;11.35;6.00;;;;;;;3.31;54.89;101013.72;5969906;29;20050;-91
2022/03/12 20:06:27;;;;;;;11.82;6.45;;;;;;;3.18;55.48;101021.03;5972094;29;20050;-91
2022/03/12 20:09:29;;;;;;;9.98;5.57;;;;;;;3.09;58.71;101011.19;5969484;29;20058;-91
2022/03/12 20:12:35;;;;;;;8.90;5.18;;;;;;;3.00;63.04;101027.72;5991271;29;20054;-91
2022/03/12 20:15:37;;;;;;;9.00;5.57;;;;;;;2.88;68.79;101023.09;5967113;29;20054;-91
2022/03/12 20:18:42;;;;;;;8.27;5.70;;;;;;;2.72;73.37;101026.25;5980268;29;20046;-91
2022/03/12 20:21:44;;;;;;;9.07;5.43;;;;;;;2.57;72.06;101017.44;5968227;29;20116;-91
2022/03/12 20:24:48;;;;;;;10.77;6.45;;;;;;;2.48;74.91;101027.16;5982659;29;20057;-90
2022/03/12 20:27:50;;;;;;;8.60;5.75;;;;;;;2.36;76.76;101013.97;5981396;29;20121;-90
2022/03/12 20:30:54;;;;;;;11.07;6.13;;;;;;;2.27;82.11;101019.41;5974732;29;20042;-90
2022/03/12 20:33:56;;;;;;;11.60;5.88;;;;;;;2.16;84.24;101018.94;5985959;29;20373;-91
2022/03/12 20:36:59;;;;;;;11.07;6.80;;;;;;;2.10;75.72;101017.47;5987319;29;20050;-91
2022/03/12 20:40:04;;;;;;;12.98;7.43;;;;;;;2.13;76.02;101021.63;5994608;29;20053;-90
2022/03/12 20:43:12;;;;;;;14.07;7.88;;;;;;;2.17;70.21;101018.09;5975781;29;20650;-90
2022/03/12 20:46:15;;;;;;;10.80;7.60;;;;;;;2.18;73.17;101017.19;5984952;29;20050;-90
2022/03/12 20:49:18;;;;;;;12.20;7.05;;;;;;;2.18;74.67;101013.81;5984236;29;20050;-90
2022/03/12 20:52:20;;;;;;;9.20;6.30;;;;;;;2.17;71.97;101014.69;5981120;29;20046;-90
2022/03/12 20:55:23;;;;;;;9.77;5.90;;;;;;;2.16;72.06;101006.19;5977765;29;20054;-90
2022/03/12 20:58:25;;;;;;;10.32;5.65;;;;;;;2.14;76.12;101003.72;5963534;29;20050;-90
2022/03/12 21:01:27;;;;;;;10.38;6.45;;;;;;;2.11;72.65;101008.06;5977308;29;20078;-90
2022/03/12 21:04:30;;;;;;;10.93;6.43;;;;;;;2.10;75.75;101011.53;5980442;29;20735;-90
2022/03/12 21:07:32;;;;;;;12.05;6.90;;;;;;;2.05;73.88;101016.78;5976427;29;20451;-91
2022/03/12 21:10:35;;;;;;;12.80;7.00;;;;;;;2.06;69.74;101015.06;5974651;29;20054;-90
2022/03/12 21:13:37;;;;;;;7.95;5.60;;;;;;;2.04;71.77;101017.69;5965284;29;20416;-90
2022/03/12 21:16:41;;;;;;;11.05;6.03;;;;;;;2.04;72.63;101007.47;5986251;29;20087;-91
2022/03/12 21:19:44;;;;;;;7.68;5.55;;;;;;;1.99;74.89;101016.16;5979060;29;20417;-90
2022/03/12 21:22:50;;;;;;;13.70;5.97;;;;;;;1.96;78.86;101013.72;5979473;29;20061;-90
2022/03/12 21:25:52;;;;;;;9.35;5.97;;;;;;;1.88;78.98;101001.25;5968079;29;20374;-90
2022/03/12 21:28:55;;;;;;;10.63;6.07;;;;;;;1.84;77.72;101007.31;5980772;29;20045;-90
2022/03/12 21:31:57;;;;;;;8.60;5.43;;;;;;;1.81;76.64;100994.69;5983176;29;20050;-90
2022/03/12 21:34:59;;;;;;;8.48;5.88;;;;;;;1.76;71.32;100997.38;5986237;29;20130;-90
2022/03/12 21:38:03;;;;;;;10.50;6.47;;;;;;;1.80;73.26;100990.47;5973373;29;20034;-90
2022/03/12 21:41:07;;;;;;;9.77;6.65;;;;;;;1.76;74.45;100986.34;5985986;29;20042;-90
2022/03/12 21:44:11;;;;;;;7.95;5.45;;;;;;;1.74;72.75;100988.97;5984352;29;20038;-90
2022/03/12 21:47:13;;;;;;;10.45;5.72;;;;;;;1.70;73.51;100993.34;5993605;29;20049;-90
2022/03/12 21:50:16;;;;;;;9.40;5.88;;;;;;;1.67;75.87;100985.81;5950543;29;20046;-90
2022/03/12 21:53:23;;;;;;;8.50;5.75;;;;;;;1.63;74.34;100983.41;5970492;29;20159;-90
2022/03/12 21:56:25;;;;;;;9.85;5.82;;;;;;;1.60;79.02;100986.88;5967867;29;20599;-90
2022/03/12 21:59:28;;;;;;;8.70;5.65;;;;;;;1.56;76.73;100975.13;5985970;29;20223;-90
2022/03/12 22:02:30;;;;;;;10.23;6.00;;;;;;;1.52;76.48;100973.56;5963899;29;20403;-90
2022/03/12 22:05:33;;;;;;;10.15;6.70;;;;;;;1.50;73.57;100971.06;5997487;29;20057;-90
2022/03/12 22:08:35;;;;;;;11.10;5.80;;;;;;;1.52;72.41;100973.56;5989558;29;20074;-90
2022/03/12 22:11:50;;;;;;;10.80;5.72;;;;;;;1.49;75.70;100963.44;5987160;29;20061;-90
2022/03/12 22:14:52;;;;;;;8.43;5.63;;;;;;;1.45;78.08;100969.56;5990061;29;20045;-90